DEPPU LSTA-LSTA

Flight info

Callsign DEPPU
Flight time 0h 22m
Altitude 14500
Route VFR
Aircraft B36T/L-S/S

Departure

Time 2026-05-06 13:41
Airport Raron Airfield (LSTA)

Arrival

Time 2026-05-06 14:03
Airport Raron Airfield (LSTA)
Time Latitude Longitude Altitude Speed Heading
2026-05-06 13:35 46.30377 7.82181 2169 ft 0 kts 95°
2026-05-06 13:38 46.30377 7.82180 2169 ft 1 kts 95°
2026-05-06 13:38 46.30374 7.82170 2169 ft 2 kts 353°
2026-05-06 13:39 46.30434 7.82148 2167 ft 17 kts 313°
2026-05-06 13:39 46.30449 7.81922 2167 ft 28 kts 270°
2026-05-06 13:39 46.30454 7.81601 2168 ft 35 kts 268°
2026-05-06 13:39 46.30466 7.81361 2168 ft 7 kts
2026-05-06 13:40 46.30471 7.81372 2168 ft 0 kts 94°
2026-05-06 13:40 46.30469 7.81429 2168 ft 16 kts 91°
2026-05-06 13:40 46.30465 7.81555 2168 ft 0 kts 94°
2026-05-06 13:40 46.30465 7.81557 2168 ft 2 kts 94°
2026-05-06 13:41 46.30460 7.81890 2167 ft 74 kts 91°
2026-05-06 13:41 46.30442 7.82542 2201 ft 117 kts 91°
2026-05-06 13:41 46.30325 7.84381 2670 ft 151 kts 98°
2026-05-06 13:41 46.30149 7.85900 3211 ft 151 kts 98°
2026-05-06 13:42 46.30035 7.86898 3672 ft 147 kts 98°
2026-05-06 13:42 46.29853 7.88320 4371 ft 143 kts 101°
2026-05-06 13:42 46.29614 7.89691 4973 ft 138 kts 105°
2026-05-06 13:42 46.29359 7.91018 5586 ft 136 kts 105°
2026-05-06 13:43 46.29064 7.92336 6211 ft 143 kts 109°
2026-05-06 13:43 46.28697 7.93810 6557 ft 161 kts 111°
2026-05-06 13:43 46.28290 7.95285 7134 ft 157 kts 113°
2026-05-06 13:43 46.27767 7.96577 7866 ft 142 kts 140°
2026-05-06 13:44 46.26918 7.97240 8565 ft 139 kts 163°
2026-05-06 13:44 46.25960 7.97575 9167 ft 142 kts 177°
2026-05-06 13:44 46.24992 7.97621 9906 ft 136 kts 189°
2026-05-06 13:44 46.24090 7.97300 10529 ft 134 kts 202°
2026-05-06 13:45 46.23188 7.96827 11013 ft 143 kts 202°
2026-05-06 13:45 46.21444 7.95703 12206 ft 134 kts 206°
2026-05-06 13:45 46.20547 7.95265 12705 ft 137 kts 193°
2026-05-06 13:46 46.19579 7.95145 13162 ft 146 kts 190°
2026-05-06 13:46 46.18570 7.94925 13727 ft 146 kts 192°
2026-05-06 13:46 46.17587 7.94768 14316 ft 138 kts 190°
2026-05-06 13:46 46.16642 7.94461 14775 ft 141 kts 205°
2026-05-06 13:47 46.15863 7.93602 15230 ft 145 kts 233°
2026-05-06 13:47 46.15432 7.92287 15741 ft 141 kts 247°
2026-05-06 13:47 46.15165 7.90932 16062 ft 143 kts 251°
2026-05-06 13:47 46.14942 7.89556 16533 ft 143 kts 257°
2026-05-06 13:48 46.14775 7.88103 16883 ft 147 kts 257°
2026-05-06 13:48 46.14653 7.86643 17260 ft 149 kts 261°
2026-05-06 13:48 46.14600 7.85131 17674 ft 151 kts 263°
2026-05-06 13:48 46.14588 7.83616 18162 ft 150 kts 266°
2026-05-06 13:49 46.14637 7.82151 18625 ft 146 kts 269°
2026-05-06 13:49 46.14764 7.80718 19084 ft 145 kts 275°
2026-05-06 13:49 46.15124 7.79331 19467 ft 154 kts 292°
2026-05-06 13:49 46.15781 7.78076 19817 ft 161 kts 305°
2026-05-06 13:50 46.16656 7.77046 20261 ft 165 kts 326°
2026-05-06 13:50 46.17786 7.76588 20595 ft 178 kts 352°
2026-05-06 13:50 46.19040 7.76642 20964 ft 182 kts
2026-05-06 13:50 46.20307 7.76802 21361 ft 184 kts
2026-05-06 13:51 46.21580 7.76989 21744 ft 184 kts
2026-05-06 13:51 46.22857 7.77187 22139 ft 184 kts
2026-05-06 13:51 46.24135 7.77389 22550 ft 184 kts
2026-05-06 13:51 46.25413 7.77592 22963 ft 185 kts
2026-05-06 13:52 46.26695 7.77795 23384 ft 186 kts
2026-05-06 13:52 46.27992 7.78007 23759 ft 188 kts
2026-05-06 13:52 46.29296 7.78236 24111 ft 189 kts
2026-05-06 13:52 46.30603 7.78473 24471 ft 189 kts
2026-05-06 13:53 46.31926 7.78694 24775 ft 195 kts
2026-05-06 13:53 46.33311 7.78929 25037 ft 204 kts
2026-05-06 13:53 46.34745 7.79174 25301 ft 211 kts
2026-05-06 13:53 46.36226 7.79436 25554 ft 217 kts
2026-05-06 13:54 46.37746 7.79710 25793 ft 222 kts
2026-05-06 13:54 46.39288 7.80000 26030 ft 225 kts
2026-05-06 13:54 46.40829 7.80298 26274 ft 228 kts
2026-05-06 13:54 46.42432 7.80616 26508 ft 234 kts
2026-05-06 13:55 46.44091 7.80950 26531 ft 247 kts
2026-05-06 13:55 46.45834 7.81292 26237 ft 265 kts
2026-05-06 13:55 46.47677 7.81624 25735 ft 266 kts
2026-05-06 13:55 46.49458 7.82153 25239 ft 260 kts 22°
2026-05-06 13:56 46.50877 7.83691 24753 ft 252 kts 54°
2026-05-06 13:56 46.51583 7.85919 24281 ft 238 kts 85°
2026-05-06 13:56 46.51411 7.88198 23818 ft 222 kts 119°
2026-05-06 13:56 46.50465 7.89827 23262 ft 207 kts 153°
2026-05-06 13:57 46.49157 7.90368 22430 ft 190 kts 176°
2026-05-06 13:57 46.47869 7.90504 21632 ft 180 kts 180°
2026-05-06 13:57 46.46643 7.90558 20858 ft 173 kts 181°
2026-05-06 13:57 46.45452 7.90590 20109 ft 170 kts 181°
2026-05-06 13:58 46.44285 7.90619 19364 ft 166 kts 182°
2026-05-06 13:58 46.43139 7.90639 18628 ft 164 kts 182°
2026-05-06 13:58 46.42002 7.90660 17873 ft 162 kts 182°
2026-05-06 13:58 46.40879 7.90677 17084 ft 162 kts 182°
2026-05-06 13:59 46.39754 7.90700 16319 ft 161 kts 182°
2026-05-06 13:59 46.38641 7.90737 15551 ft 159 kts 182°
2026-05-06 13:59 46.37545 7.90790 14837 ft 159 kts 182°
2026-05-06 13:59 46.36443 7.90851 14117 ft 158 kts 182°
2026-05-06 14:00 46.35348 7.90918 13403 ft 158 kts 182°
2026-05-06 14:00 46.34251 7.91000 12623 ft 157 kts 182°
2026-05-06 14:00 46.33156 7.91075 11862 ft 157 kts 182°
2026-05-06 14:00 46.32071 7.91163 11117 ft 155 kts 182°
2026-05-06 14:01 46.31000 7.91248 10374 ft 154 kts 182°
2026-05-06 14:01 46.29932 7.91336 9649 ft 154 kts 182°
2026-05-06 14:01 46.28856 7.91297 8735 ft 158 kts 194°
2026-05-06 14:01 46.28180 7.90227 7046 ft 161 kts 269°
2026-05-06 14:02 46.28801 7.88835 5644 ft 162 kts 328°
2026-05-06 14:02 46.29589 7.87999 5049 ft 134 kts 312°
2026-05-06 14:02 46.30081 7.86839 4009 ft 134 kts 289°
2026-05-06 14:02 46.30283 7.85547 3080 ft 129 kts 282°
2026-05-06 14:03 46.30397 7.84304 2374 ft 120 kts 275°
2026-05-06 14:03 46.30428 7.83197 2211 ft 97 kts 271°
2026-05-06 14:03 46.30443 7.82286 2164 ft 79 kts 271°
2026-05-06 14:03 46.30449 7.81711 2159 ft 32 kts 268°
2026-05-06 14:04 46.30462 7.81583 2160 ft 5 kts 64°
2026-05-06 14:04 46.30460 7.81709 2159 ft 22 kts 86°
2026-05-06 14:04 46.30457 7.82003 2160 ft 35 kts 94°
2026-05-06 14:04 46.30383 7.82156 2162 ft 12 kts 197°
2026-05-06 14:05 46.30309 7.82127 2160 ft 4 kts 279°
2026-05-06 14:05 46.30312 7.82122 2160 ft 1 kts 355°
2026-05-06 14:05 46.30311 7.82122 2160 ft 0 kts